createdAt,value
2023-08-11T00:01:45.335Z,1002.68
2023-08-11T00:06:45.253Z,1002.73
2023-08-11T00:11:45.286Z,1002.74
2023-08-11T00:16:45.077Z,1002.72
2023-08-11T00:21:45.060Z,1002.75
2023-08-11T00:26:44.946Z,1002.73
2023-08-11T00:31:48.133Z,1002.82
2023-08-11T00:36:44.841Z,1002.88
2023-08-11T00:41:45.108Z,1002.89
2023-08-11T00:46:44.699Z,1002.92
2023-08-11T00:51:45.080Z,1002.95
2023-08-11T00:56:44.572Z,1002.95
2023-08-11T01:01:44.587Z,1003.03
2023-08-11T01:06:44.483Z,1003.02
2023-08-11T01:11:44.484Z,1003.03
2023-08-11T01:16:44.406Z,1002.97
2023-08-11T01:21:44.306Z,1002.95
2023-08-11T01:26:44.168Z,1002.87
2023-08-11T01:31:47.170Z,1002.82
2023-08-11T01:36:44.064Z,1002.77
2023-08-11T01:41:45.048Z,1002.75
2023-08-11T01:46:44.001Z,1002.82
2023-08-11T01:51:44.232Z,1002.81
2023-08-11T01:56:43.793Z,1002.81
2023-08-11T02:01:43.804Z,1002.85
2023-08-11T02:06:43.662Z,1002.80
2023-08-11T02:11:43.630Z,1002.84
2023-08-11T02:16:43.533Z,1002.82
2023-08-11T02:21:43.493Z,1002.84
2023-08-11T02:26:43.413Z,1002.83
2023-08-11T02:31:46.418Z,1002.90
2023-08-11T02:36:43.275Z,1002.92
2023-08-11T02:41:43.223Z,1002.92
2023-08-11T02:46:43.132Z,1002.85
2023-08-11T02:51:43.235Z,1002.85
2023-08-11T02:56:43.005Z,1002.85
2023-08-11T03:01:43.290Z,1002.90
2023-08-11T03:06:42.833Z,1002.93
2023-08-11T03:11:42.855Z,1002.94
2023-08-11T03:16:42.733Z,1002.94
2023-08-11T03:21:42.731Z,1002.94
2023-08-11T03:26:42.676Z,1002.91
2023-08-11T03:31:45.675Z,1002.97
2023-08-11T03:36:42.528Z,1002.91
2023-08-11T03:41:42.453Z,1002.97
2023-08-11T03:46:42.394Z,1003.03
2023-08-11T03:51:42.419Z,1003.13
2023-08-11T03:56:43.088Z,1003.10
2023-08-11T04:01:42.209Z,1003.14
2023-08-11T04:06:42.043Z,1003.15
2023-08-11T04:11:42.281Z,1003.15
2023-08-11T04:16:42.022Z,1003.20
2023-08-11T04:21:41.910Z,1003.14
2023-08-11T04:26:41.807Z,1003.10
2023-08-11T04:31:44.822Z,1003.07
2023-08-11T04:36:41.656Z,1003.06
2023-08-11T04:41:41.622Z,1003.01
2023-08-11T04:46:41.602Z,1002.97
2023-08-11T04:51:41.518Z,1002.95
2023-08-11T04:56:41.410Z,1002.97
2023-08-11T05:01:41.416Z,1002.89
2023-08-11T05:06:41.297Z,1002.96
2023-08-11T05:11:41.225Z,1002.88
2023-08-11T05:16:41.146Z,1002.84
2023-08-11T05:21:41.326Z,1002.85
2023-08-11T05:26:41.034Z,1002.91
2023-08-11T05:31:44.051Z,1002.88
2023-08-11T05:36:40.865Z,1002.89
2023-08-11T05:41:40.856Z,1002.87
2023-08-11T05:46:40.772Z,1002.76
2023-08-11T05:51:40.708Z,1002.76
2023-08-11T05:56:40.596Z,1002.67
2023-08-11T06:01:40.631Z,1002.70
2023-08-11T06:06:40.468Z,1002.65
2023-08-11T06:11:40.470Z,1002.57
2023-08-11T06:16:40.378Z,1002.49
2023-08-11T06:21:40.295Z,1002.53
2023-08-11T06:26:40.202Z,1002.47
2023-08-11T06:31:43.493Z,1002.55
2023-08-11T06:36:40.099Z,1002.50
2023-08-11T06:41:40.088Z,1002.53
2023-08-11T06:46:39.969Z,1002.49
2023-08-11T06:51:39.932Z,1002.51
2023-08-11T06:56:39.833Z,1002.53
2023-08-11T07:01:39.840Z,1002.43
2023-08-11T07:06:39.694Z,1002.38
2023-08-11T07:11:39.710Z,1002.39
2023-08-11T07:16:39.638Z,1002.35
2023-08-11T07:21:39.548Z,1002.33
2023-08-11T07:26:39.471Z,1002.29
2023-08-11T07:31:42.500Z,1002.24
2023-08-11T07:36:39.374Z,1002.24
2023-08-11T07:41:39.578Z,1002.19
2023-08-11T07:46:39.250Z,1002.22
2023-08-11T07:51:39.175Z,1002.08
2023-08-11T07:56:39.123Z,1002.09
2023-08-11T08:01:39.153Z,1002.06
2023-08-11T08:06:38.990Z,1001.98
2023-08-11T08:11:38.952Z,1001.86
2023-08-11T08:16:38.917Z,1001.92
2023-08-11T08:21:38.841Z,1001.93
2023-08-11T08:26:38.742Z,1001.87
2023-08-11T08:31:41.750Z,1001.75
2023-08-11T08:36:38.639Z,1001.81
2023-08-11T08:41:38.832Z,1001.87
2023-08-11T08:46:38.707Z,1001.94
2023-08-11T08:51:38.679Z,1002.00
2023-08-11T08:56:38.390Z,1002.10
2023-08-11T09:01:38.378Z,1002.09
2023-08-11T09:06:38.245Z,1002.12
2023-08-11T09:11:38.207Z,1002.09
2023-08-11T09:16:38.168Z,1002.09
2023-08-11T09:21:38.063Z,1002.06
2023-08-11T09:26:37.953Z,1002.07
2023-08-11T09:31:41.097Z,1002.03
2023-08-11T09:36:37.840Z,1002.07
2023-08-11T09:41:37.781Z,1002.12
2023-08-11T09:46:37.764Z,1002.14
2023-08-11T09:51:37.708Z,1002.05
2023-08-11T09:56:37.554Z,1002.12
2023-08-11T10:01:37.600Z,1002.07
2023-08-11T10:06:37.443Z,1002.12
2023-08-11T10:11:37.370Z,1002.15
2023-08-11T10:16:37.269Z,1002.12
2023-08-11T10:21:37.251Z,1002.07
2023-08-11T10:26:37.143Z,1002.00
2023-08-11T10:31:40.148Z,1001.95
2023-08-11T10:36:36.996Z,1001.89
2023-08-11T10:41:36.982Z,1001.81
2023-08-11T10:46:36.896Z,1001.82
2023-08-11T10:51:36.838Z,1001.74
2023-08-11T10:56:36.803Z,1001.69
2023-08-11T11:01:36.945Z,1001.68
2023-08-11T11:06:36.628Z,1001.67
2023-08-11T11:11:36.624Z,1001.69
2023-08-11T11:16:36.572Z,1001.66
2023-08-11T11:21:36.437Z,1001.55
2023-08-11T11:26:36.339Z,1001.64
2023-08-11T11:31:39.346Z,1001.64
2023-08-11T11:36:36.274Z,1001.61
2023-08-11T11:41:36.173Z,1001.56
2023-08-11T11:46:36.157Z,1001.54
2023-08-11T11:51:36.056Z,1001.52
2023-08-11T11:56:36.923Z,1001.39
2023-08-11T12:01:35.994Z,1001.43
2023-08-11T12:06:35.858Z,1001.36
2023-08-11T12:11:35.855Z,1001.39
2023-08-11T12:16:35.766Z,1001.36
2023-08-11T12:21:35.695Z,1001.29
2023-08-11T12:26:35.606Z,1001.25
2023-08-11T12:31:39.516Z,1001.19
2023-08-11T12:36:35.461Z,1001.19
2023-08-11T12:41:35.405Z,1001.14
2023-08-11T12:46:35.309Z,1001.09
2023-08-11T12:51:35.253Z,1001.12
2023-08-11T12:56:35.206Z,1001.17
2023-08-11T13:01:35.182Z,1001.13
2023-08-11T13:06:35.021Z,1001.21
2023-08-11T13:11:34.998Z,1001.19
2023-08-11T13:16:34.970Z,1001.17
2023-08-11T13:21:35.068Z,1001.17
2023-08-11T13:26:34.785Z,1001.12
2023-08-11T13:31:37.860Z,1000.98
2023-08-11T13:36:34.668Z,1000.96
2023-08-11T13:41:34.650Z,1000.95
2023-08-11T13:46:34.654Z,1000.93
2023-08-11T13:51:34.572Z,1000.94
2023-08-11T13:56:34.482Z,1000.94
2023-08-11T14:01:34.528Z,1000.86
2023-08-11T14:06:34.488Z,1000.86
2023-08-11T14:11:34.321Z,1000.82
2023-08-11T14:16:34.172Z,1000.76
2023-08-11T14:21:34.179Z,1000.72
2023-08-11T14:26:34.093Z,1000.62
2023-08-11T14:31:37.087Z,1000.58
2023-08-11T14:36:33.898Z,1000.55
2023-08-11T14:41:33.936Z,1000.59
2023-08-11T14:46:33.837Z,1000.61
2023-08-11T14:51:33.788Z,1000.49
2023-08-11T14:56:33.690Z,1000.46
2023-08-11T15:01:33.671Z,1000.50
2023-08-11T15:06:33.434Z,1000.43
2023-08-11T15:11:33.433Z,1000.36
2023-08-11T15:16:33.436Z,1000.31
2023-08-11T15:21:33.251Z,1000.23
2023-08-11T15:26:33.324Z,1000.16
2023-08-11T15:31:36.214Z,1000.14
2023-08-11T15:36:33.048Z,1000.12
2023-08-11T15:41:33.105Z,1000.08
2023-08-11T15:46:32.979Z,1000.06
2023-08-11T15:51:32.952Z,1000.04
2023-08-11T15:56:32.857Z,1000.10
2023-08-11T16:01:32.885Z,1000.07
2023-08-11T16:06:32.659Z,1000.00
2023-08-11T16:11:32.631Z,999.98
2023-08-11T16:16:32.565Z,999.93
2023-08-11T16:21:32.527Z,999.90
2023-08-11T16:26:32.383Z,999.88
2023-08-11T16:31:35.495Z,999.88
2023-08-11T16:36:32.303Z,999.87
2023-08-11T16:41:32.257Z,999.81
2023-08-11T16:46:32.245Z,999.80
2023-08-11T16:51:32.207Z,999.79
2023-08-11T16:56:32.043Z,999.80
2023-08-11T17:01:32.059Z,999.87
2023-08-11T17:06:31.878Z,999.79
2023-08-11T17:11:31.870Z,999.80
2023-08-11T17:16:31.850Z,999.74
2023-08-11T17:21:31.728Z,999.68
2023-08-11T17:26:31.709Z,999.64
2023-08-11T17:31:34.587Z,999.66
2023-08-11T17:36:31.495Z,999.69
2023-08-11T17:41:31.478Z,999.72
2023-08-11T17:46:31.395Z,999.70
2023-08-11T17:51:31.315Z,999.74
2023-08-11T17:56:31.214Z,999.80
2023-08-11T18:01:31.935Z,999.83
2023-08-11T18:06:31.263Z,999.92
2023-08-11T18:11:31.590Z,999.99
2023-08-11T18:16:31.151Z,1000.00
2023-08-11T18:21:31.000Z,1000.04
2023-08-11T18:26:38.578Z,1000.08
2023-08-11T18:31:33.688Z,1000.19
2023-08-11T18:36:30.679Z,1000.23
2023-08-11T18:41:30.559Z,1000.27
2023-08-11T18:46:30.658Z,1000.27
2023-08-11T18:51:30.544Z,1000.32
2023-08-11T18:56:30.481Z,1000.28
2023-08-11T19:01:30.385Z,1000.35
2023-08-11T19:06:30.369Z,1000.33
2023-08-11T19:11:30.205Z,1000.29
2023-08-11T19:16:30.306Z,1000.32
2023-08-11T19:21:30.091Z,1000.33
2023-08-11T19:26:30.136Z,1000.39
2023-08-11T19:31:33.009Z,1000.47
2023-08-11T19:36:29.884Z,1000.45
2023-08-11T19:41:29.936Z,1000.53
2023-08-11T19:46:29.859Z,1000.51
2023-08-11T19:51:32.195Z,1000.57
2023-08-11T19:56:29.717Z,1000.53
2023-08-11T20:01:29.642Z,1000.49
2023-08-11T20:06:29.565Z,1000.47
2023-08-11T20:11:29.650Z,1000.43
2023-08-11T20:16:29.360Z,1000.42
2023-08-11T20:21:29.331Z,1000.37
2023-08-11T20:26:29.204Z,1000.38
2023-08-11T20:31:32.209Z,1000.29
2023-08-11T20:36:29.062Z,1000.30
2023-08-11T20:41:29.099Z,1000.29
2023-08-11T20:46:28.922Z,1000.23
2023-08-11T20:51:28.893Z,1000.15
2023-08-11T21:21:50.257Z,1000.31
2023-08-11T21:26:50.138Z,1000.30
2023-08-11T21:31:50.104Z,1000.22
2023-08-11T21:36:49.972Z,1000.22
2023-08-11T21:41:49.943Z,1000.24
2023-08-11T21:46:49.932Z,1000.26
2023-08-11T21:51:49.833Z,1000.21
2023-08-11T21:56:49.669Z,1000.19
2023-08-11T22:01:49.668Z,1000.21
2023-08-11T22:06:49.538Z,1000.24
2023-08-11T22:11:52.586Z,1000.29
2023-08-11T22:16:49.524Z,1000.30
2023-08-11T22:21:49.503Z,1000.31
2023-08-11T22:26:49.283Z,1000.29
2023-08-11T22:31:49.315Z,1000.32
2023-08-11T22:36:51.174Z,1000.29
2023-08-11T22:41:49.147Z,1000.25
2023-08-11T22:46:49.037Z,1000.21
2023-08-11T22:51:49.060Z,1000.20
2023-08-11T22:56:48.953Z,1000.20
2023-08-11T23:01:48.890Z,1000.21
2023-08-11T23:06:48.756Z,1000.24
2023-08-11T23:11:51.737Z,1000.18
2023-08-11T23:16:48.628Z,1000.21
2023-08-11T23:21:48.609Z,1000.28
2023-08-11T23:26:48.488Z,1000.27
2023-08-11T23:31:48.596Z,1000.36
2023-08-11T23:36:48.391Z,1000.36
2023-08-11T23:41:48.327Z,1000.34
2023-08-11T23:46:48.222Z,1000.30
2023-08-11T23:51:48.200Z,1000.26
2023-08-11T23:56:48.121Z,1000.22
